Terminal Aerodrome Forecast
Issued by NWS

Home | Current Version | Previous Version | Text Only | Print | Product List | Glossary On
Versions: 1 2 3 4 5 6 7 8 9 10 11 12
000
FTUS43 KMQT 301100
TAFIWD
TAF
KIWD 301137Z 3012/0112 07004KT P6SM OVC008
     FM301400 09004KT P6SM OVC010
     FM301700 10005KT P6SM OVC020
     FM301900 11006KT P6SM SCT025
     FM010200 16007KT P6SM BKN250
      AMD NOT SKED=

USA.gov is the U.S. government's official web portal to all federal, state and local government web resources and services.